sensor_id;sensor_type;location;lat;lon;timestamp;pressure;altitude;pressure_sealevel;temperature;humidity
47761;BME280;33524;55.434;38.520;2023-04-04T00:00:37;100102.34;;;6.16;95.94
47761;BME280;33524;55.434;38.520;2023-04-04T00:03:06;100102.34;;;6.16;95.98
47761;BME280;33524;55.434;38.520;2023-04-04T00:05:33;100103.66;;;6.23;95.26
47761;BME280;33524;55.434;38.520;2023-04-04T00:08:02;100098.78;;;6.17;95.41
47761;BME280;33524;55.434;38.520;2023-04-04T00:10:30;100102.25;;;6.18;95.50
47761;BME280;33524;55.434;38.520;2023-04-04T00:13:01;100100.00;;;6.26;94.60
47761;BME280;33524;55.434;38.520;2023-04-04T00:15:29;100098.41;;;6.09;96.08
47761;BME280;33524;55.434;38.520;2023-04-04T00:17:57;100101.97;;;6.08;96.42
47761;BME280;33524;55.434;38.520;2023-04-04T00:20:24;100105.88;;;6.15;95.66
47761;BME280;33524;55.434;38.520;2023-04-04T00:22:52;100105.97;;;6.14;95.62
47761;BME280;33524;55.434;38.520;2023-04-04T00:25:20;100106.66;;;6.32;94.23
47761;BME280;33524;55.434;38.520;2023-04-04T00:27:48;100109.72;;;6.24;94.37
47761;BME280;33524;55.434;38.520;2023-04-04T00:30:15;100105.72;;;6.18;94.58
47761;BME280;33524;55.434;38.520;2023-04-04T00:32:43;100108.31;;;6.18;94.85
47761;BME280;33524;55.434;38.520;2023-04-04T00:35:11;100105.22;;;6.12;95.23
47761;BME280;33524;55.434;38.520;2023-04-04T00:37:39;100105.56;;;6.05;95.46
47761;BME280;33524;55.434;38.520;2023-04-04T00:40:07;100100.47;;;5.88;96.88
47761;BME280;33524;55.434;38.520;2023-04-04T00:42:35;100099.03;;;5.82;96.90
47761;BME280;33524;55.434;38.520;2023-04-04T00:45:05;100101.56;;;5.84;96.05
47761;BME280;33524;55.434;38.520;2023-04-04T00:47:33;100100.84;;;5.66;97.28
47761;BME280;33524;55.434;38.520;2023-04-04T00:50:01;100097.25;;;5.53;97.76
47761;BME280;33524;55.434;38.520;2023-04-04T00:52:29;100097.87;;;5.42;98.47
47761;BME280;33524;55.434;38.520;2023-04-04T00:54:57;100098.53;;;5.30;99.36
47761;BME280;33524;55.434;38.520;2023-04-04T00:57:27;100101.16;;;5.14;100.00
47761;BME280;33524;55.434;38.520;2023-04-04T01:00:02;100101.66;;;5.04;100.00
47761;BME280;33524;55.434;38.520;2023-04-04T01:02:33;100099.38;;;4.98;100.00
47761;BME280;33524;55.434;38.520;2023-04-04T07:42:22;100085.25;;;21.35;52.77
47761;BME280;33524;55.434;38.520;2023-04-04T07:44:53;100085.25;;;21.35;52.77
47761;BME280;33524;55.434;38.520;2023-04-04T07:47:21;100094.84;;;20.10;47.34
47761;BME280;33524;55.434;38.520;2023-04-04T07:49:49;100095.19;;;20.45;52.74
47761;BME280;33524;55.434;38.520;2023-04-04T07:52:18;100100.78;;;19.20;49.10
47761;BME280;33524;55.434;38.520;2023-04-04T07:54:46;100098.47;;;19.17;46.23
47761;BME280;33524;55.434;38.520;2023-04-04T07:57:14;100098.81;;;18.50;55.88
47761;BME280;33524;55.434;38.520;2023-04-04T07:59:42;100105.22;;;17.91;54.53
47761;BME280;33524;55.434;38.520;2023-04-04T08:02:11;100108.63;;;18.58;54.82
47761;BME280;33524;55.434;38.520;2023-04-04T08:04:39;100099.53;;;19.39;54.83
47761;BME280;33524;55.434;38.520;2023-04-04T08:07:07;100107.59;;;19.23;48.66
47761;BME280;33524;55.434;38.520;2023-04-04T08:09:34;100111.19;;;18.34;44.60
47761;BME280;33524;55.434;38.520;2023-04-04T08:12:03;100112.31;;;18.57;44.73
47761;BME280;33524;55.434;38.520;2023-04-04T08:14:33;100109.50;;;19.06;56.79
47761;BME280;33524;55.434;38.520;2023-04-04T08:17:00;100109.97;;;19.72;42.93
47761;BME280;33524;55.434;38.520;2023-04-04T08:19:29;100113.66;;;19.94;53.73
47761;BME280;33524;55.434;38.520;2023-04-04T08:21:57;100104.91;;;19.31;41.99
47761;BME280;33524;55.434;38.520;2023-04-04T08:24:24;100109.91;;;18.86;54.96
47761;BME280;33524;55.434;38.520;2023-04-04T08:26:54;100114.41;;;19.56;41.33
47761;BME280;33524;55.434;38.520;2023-04-04T08:29:32;100109.72;;;20.43;52.98
47761;BME280;33524;55.434;38.520;2023-04-04T08:32:01;100115.25;;;19.26;52.30
47761;BME280;33524;55.434;38.520;2023-04-04T08:34:29;100120.44;;;18.80;41.68
47761;BME280;33524;55.434;38.520;2023-04-04T08:36:57;100111.00;;;18.44;42.97
47761;BME280;33524;55.434;38.520;2023-04-04T08:39:25;100102.44;;;19.21;44.19
47761;BME280;33524;55.434;38.520;2023-04-04T08:42:04;100101.59;;;20.59;45.18
47761;BME280;33524;55.434;38.520;2023-04-04T08:44:33;100088.88;;;20.38;54.97
47761;BME280;33524;55.434;38.520;2023-04-04T08:47:03;100095.94;;;21.93;51.20
47761;BME280;33524;55.434;38.520;2023-04-04T08:49:37;100104.72;;;21.87;39.89
47761;BME280;33524;55.434;38.520;2023-04-04T08:52:12;100099.88;;;22.47;49.79
47761;BME280;33524;55.434;38.520;2023-04-04T08:54:42;100096.12;;;21.48;42.24
47761;BME280;33524;55.434;38.520;2023-04-04T08:57:11;100107.09;;;20.72;38.74
47761;BME280;33524;55.434;38.520;2023-04-04T08:59:39;100107.53;;;19.62;42.14
47761;BME280;33524;55.434;38.520;2023-04-04T09:04:36;100105.25;;;20.58;53.63
47761;BME280;33524;55.434;38.520;2023-04-04T09:07:06;100100.12;;;20.33;39.64
47761;BME280;33524;55.434;38.520;2023-04-04T09:09:35;100106.78;;;20.00;38.05
47761;BME280;33524;55.434;38.520;2023-04-04T09:12:05;100106.22;;;19.35;40.18
47761;BME280;33524;55.434;38.520;2023-04-04T09:14:36;100108.56;;;20.07;42.56
47761;BME280;33524;55.434;38.520;2023-04-04T09:17:05;100108.28;;;19.48;39.05
47761;BME280;33524;55.434;38.520;2023-04-04T09:19:38;100089.69;;;19.63;39.54
47761;BME280;33524;55.434;38.520;2023-04-04T09:22:07;100109.22;;;18.92;40.16
47761;BME280;33524;55.434;38.520;2023-04-04T09:24:40;100119.59;;;21.16;51.32
47761;BME280;33524;55.434;38.520;2023-04-04T09:27:09;100110.03;;;22.93;47.21
47761;BME280;33524;55.434;38.520;2023-04-04T09:29:39;100118.13;;;22.36;39.03
47761;BME280;33524;55.434;38.520;2023-04-04T09:32:08;100130.03;;;21.11;36.55
47761;BME280;33524;55.434;38.520;2023-04-04T09:34:36;100112.63;;;20.18;35.89
47761;BME280;33524;55.434;38.520;2023-04-04T09:37:05;100119.81;;;19.09;37.62
47761;BME280;33524;55.434;38.520;2023-04-04T09:39:33;100115.47;;;20.99;51.19
47761;BME280;33524;55.434;38.520;2023-04-04T09:42:02;100127.34;;;21.84;34.73
47761;BME280;33524;55.434;38.520;2023-04-04T09:44:30;100109.50;;;23.11;47.36
47761;BME280;33524;55.434;38.520;2023-04-04T09:47:22;100119.22;;;21.71;45.68
47761;BME280;33524;55.434;38.520;2023-04-04T09:50:00;100109.62;;;22.96;39.42
47761;BME280;33524;55.434;38.520;2023-04-04T09:52:35;100117.44;;;21.27;35.10
47761;BME280;33524;55.434;38.520;2023-04-04T09:55:04;100102.88;;;20.63;35.76
47761;BME280;33524;55.434;38.520;2023-04-04T09:57:36;100108.66;;;20.96;36.42
47761;BME280;33524;55.434;38.520;2023-04-04T10:00:05;100111.22;;;22.84;43.90
47761;BME280;33524;55.434;38.520;2023-04-04T10:02:39;100116.84;;;22.54;47.37
47761;BME280;33524;55.434;38.520;2023-04-04T10:05:15;100115.56;;;24.14;44.30
47761;BME280;33524;55.434;38.520;2023-04-04T10:07:43;100113.09;;;22.90;33.22
47761;BME280;33524;55.434;38.520;2023-04-04T10:10:13;100125.72;;;21.83;33.79
47761;BME280;33524;55.434;38.520;2023-04-04T10:12:44;100126.44;;;20.89;46.60
47761;BME280;33524;55.434;38.520;2023-04-04T10:15:15;100109.00;;;22.59;48.04
47761;BME280;33524;55.434;38.520;2023-04-04T10:17:44;100123.28;;;22.10;43.22
47761;BME280;33524;55.434;38.520;2023-04-04T10:20:14;100127.00;;;21.87;48.40
47761;BME280;33524;55.434;38.520;2023-04-04T10:22:42;100117.34;;;22.71;48.05
47761;BME280;33524;55.434;38.520;2023-04-04T10:25:12;100121.78;;;22.57;42.96
47761;BME280;33524;55.434;38.520;2023-04-04T10:27:40;100127.72;;;21.60;35.51
47761;BME280;33524;55.434;38.520;2023-04-04T10:30:08;100140.00;;;21.69;35.42
47761;BME280;33524;55.434;38.520;2023-04-04T10:33:00;100139.41;;;21.22;34.15
47761;BME280;33524;55.434;38.520;2023-04-04T10:35:34;100140.19;;;19.41;37.14
47761;BME280;33524;55.434;38.520;2023-04-04T10:38:03;100147.84;;;18.97;38.41
47761;BME280;33524;55.434;38.520;2023-04-04T10:40:35;100153.94;;;18.41;40.15
47761;BME280;33524;55.434;38.520;2023-04-04T10:43:06;100153.25;;;17.98;47.55
47761;BME280;33524;55.434;38.520;2023-04-04T10:45:35;100147.59;;;17.26;40.92
47761;BME280;33524;55.434;38.520;2023-04-04T10:48:10;100155.06;;;16.88;41.80
47761;BME280;33524;55.434;38.520;2023-04-04T10:50:38;100153.97;;;17.41;51.33
47761;BME280;33524;55.434;38.520;2023-04-04T10:53:07;100146.81;;;18.17;51.10
47761;BME280;33524;55.434;38.520;2023-04-04T10:55:37;100153.03;;;18.98;40.69
47761;BME280;33524;55.434;38.520;2023-04-04T10:58:07;100155.87;;;17.82;41.32
47761;BME280;33524;55.434;38.520;2023-04-04T11:00:51;100154.66;;;16.74;43.14
47761;BME280;33524;55.434;38.520;2023-04-04T11:03:22;100160.75;;;16.23;44.17
47761;BME280;33524;55.434;38.520;2023-04-04T11:05:51;100160.16;;;15.93;44.24
47761;BME280;33524;55.434;38.520;2023-04-04T11:08:27;100162.97;;;17.57;49.07
47761;BME280;33524;55.434;38.520;2023-04-04T11:10:56;100152.94;;;18.01;46.35
47761;BME280;33524;55.434;38.520;2023-04-04T11:13:31;100152.69;;;17.62;61.25
47761;BME280;33524;55.434;38.520;2023-04-04T11:16:06;100149.47;;;16.03;43.87
47761;BME280;33524;55.434;38.520;2023-04-04T11:18:44;100155.75;;;17.91;52.50
47761;BME280;33524;55.434;38.520;2023-04-04T11:21:14;100144.16;;;18.33;62.73
47761;BME280;33524;55.434;38.520;2023-04-04T11:29:04;100151.09;;;16.40;45.07
47761;BME280;33524;55.434;38.520;2023-04-04T11:31:42;100150.22;;;16.13;45.44
47761;BME280;33524;55.434;38.520;2023-04-04T11:34:29;100144.72;;;18.68;61.73
47761;BME280;33524;55.434;38.520;2023-04-04T11:36:58;100151.22;;;17.67;62.59
47761;BME280;33524;55.434;38.520;2023-04-04T11:39:29;100147.28;;;17.29;42.68
47761;BME280;33524;55.434;38.520;2023-04-04T11:42:05;100156.22;;;16.85;50.06
47761;BME280;33524;55.434;38.520;2023-04-04T11:45:02;100142.63;;;17.90;58.07
47761;BME280;33524;55.434;38.520;2023-04-04T11:47:31;100159.00;;;15.96;44.27
47761;BME280;33524;55.434;38.520;2023-04-04T11:50:00;100155.84;;;17.06;62.08
47761;BME280;33524;55.434;38.520;2023-04-04T11:52:33;100141.91;;;19.26;54.63
47761;BME280;33524;55.434;38.520;2023-04-04T11:55:18;100148.69;;;19.68;57.45
47761;BME280;33524;55.434;38.520;2023-04-04T11:57:48;100146.63;;;18.35;57.90
47761;BME280;33524;55.434;38.520;2023-04-04T12:00:34;100146.72;;;18.83;55.11
47761;BME280;33524;55.434;38.520;2023-04-04T12:03:11;100150.22;;;17.77;44.85
47761;BME280;33524;55.434;38.520;2023-04-04T12:05:41;100145.75;;;18.59;54.41
47761;BME280;33524;55.434;38.520;2023-04-04T12:08:11;100149.94;;;17.29;43.29
47761;BME280;33524;55.434;38.520;2023-04-04T12:10:39;100148.19;;;17.03;55.25
47761;BME280;33524;55.434;38.520;2023-04-04T12:13:08;100155.09;;;17.89;43.98
47761;BME280;33524;55.434;38.520;2023-04-04T12:15:37;100150.44;;;17.24;43.08
47761;BME280;33524;55.434;38.520;2023-04-04T12:18:06;100149.16;;;17.02;43.00
47761;BME280;33524;55.434;38.520;2023-04-04T12:20:38;100167.19;;;17.25;49.97
47761;BME280;33524;55.434;38.520;2023-04-04T12:23:08;100166.16;;;17.18;41.57
47761;BME280;33524;55.434;38.520;2023-04-04T12:25:36;100164.50;;;16.82;41.58
47761;BME280;33524;55.434;38.520;2023-04-04T12:28:06;100168.28;;;16.80;43.01
47761;BME280;33524;55.434;38.520;2023-04-04T12:30:38;100165.69;;;16.88;40.25
47761;BME280;33524;55.434;38.520;2023-04-04T12:33:06;100157.59;;;16.71;41.88
47761;BME280;33524;55.434;38.520;2023-04-04T12:35:34;100167.66;;;16.60;42.81
47761;BME280;33524;55.434;38.520;2023-04-04T12:38:05;100166.81;;;16.59;43.13
47761;BME280;33524;55.434;38.520;2023-04-04T12:40:36;100171.38;;;16.49;43.71
47761;BME280;33524;55.434;38.520;2023-04-04T12:43:06;100169.75;;;16.48;43.88
47761;BME280;33524;55.434;38.520;2023-04-04T12:45:41;100174.09;;;16.57;43.45
47761;BME280;33524;55.434;38.520;2023-04-04T12:48:12;100162.75;;;16.73;42.34
47761;BME280;33524;55.434;38.520;2023-04-04T12:50:55;100165.91;;;16.68;42.98
47761;BME280;33524;55.434;38.520;2023-04-04T12:53:28;100165.72;;;16.44;44.00
47761;BME280;33524;55.434;38.520;2023-04-04T12:56:13;100170.44;;;16.32;43.17
47761;BME280;33524;55.434;38.520;2023-04-04T12:58:45;100165.59;;;16.27;44.48
47761;BME280;33524;55.434;38.520;2023-04-04T13:01:15;100168.88;;;16.21;44.23
47761;BME280;33524;55.434;38.520;2023-04-04T13:04:03;100163.75;;;16.46;43.44
47761;BME280;33524;55.434;38.520;2023-04-04T13:06:31;100164.69;;;16.63;42.88
47761;BME280;33524;55.434;38.520;2023-04-04T13:08:59;100175.34;;;16.45;42.86
47761;BME280;33524;55.434;38.520;2023-04-04T13:12:03;100179.09;;;16.34;43.18
47761;BME280;33524;55.434;38.520;2023-04-04T13:14:56;100177.50;;;16.23;42.58
47761;BME280;33524;55.434;38.520;2023-04-04T13:17:37;100181.31;;;16.03;43.44
47761;BME280;33524;55.434;38.520;2023-04-04T13:20:05;100190.38;;;15.82;43.74
47761;BME280;33524;55.434;38.520;2023-04-04T13:22:37;100182.81;;;15.60;45.08
47761;BME280;33524;55.434;38.520;2023-04-04T13:25:07;100188.06;;;15.42;46.24
47761;BME280;33524;55.434;38.520;2023-04-04T13:27:36;100191.31;;;16.09;44.29
47761;BME280;33524;55.434;38.520;2023-04-04T13:30:05;100191.66;;;17.28;41.37
47761;BME280;33524;55.434;38.520;2023-04-04T13:32:37;100180.72;;;17.40;40.30
47761;BME280;33524;55.434;38.520;2023-04-04T13:35:05;100188.94;;;16.68;40.84
47761;BME280;33524;55.434;38.520;2023-04-04T13:37:33;100189.78;;;16.24;42.32
47761;BME280;33524;55.434;38.520;2023-04-04T13:40:02;100195.69;;;15.82;43.04
47761;BME280;33524;55.434;38.520;2023-04-04T13:42:30;100202.56;;;15.47;44.37
47761;BME280;33524;55.434;38.520;2023-04-04T13:44:58;100205.69;;;15.05;45.23
47761;BME280;33524;55.434;38.520;2023-04-04T13:47:26;100213.97;;;14.73;46.85
47761;BME280;33524;55.434;38.520;2023-04-04T13:49:55;100195.59;;;14.42;47.76
47761;BME280;33524;55.434;38.520;2023-04-04T13:52:23;100216.78;;;14.23;46.32
47761;BME280;33524;55.434;38.520;2023-04-04T13:54:51;100229.03;;;14.14;53.52
47761;BME280;33524;55.434;38.520;2023-04-04T13:57:19;100226.66;;;14.11;59.51
47761;BME280;33524;55.434;38.520;2023-04-04T13:59:47;100207.84;;;14.53;67.19
47761;BME280;33524;55.434;38.520;2023-04-04T14:02:15;100209.72;;;15.37;65.76
47761;BME280;33524;55.434;38.520;2023-04-04T14:04:44;100210.25;;;15.68;64.37
47761;BME280;33524;55.434;38.520;2023-04-04T14:07:12;100209.25;;;15.51;64.83
47761;BME280;33524;55.434;38.520;2023-04-04T14:09:39;100210.31;;;15.31;63.58
47761;BME280;33524;55.434;38.520;2023-04-04T14:12:08;100207.19;;;15.08;59.58
47761;BME280;33524;55.434;38.520;2023-04-04T14:14:36;100214.47;;;15.06;62.82
47761;BME280;33524;55.434;38.520;2023-04-04T14:17:04;100206.41;;;14.98;59.85
47761;BME280;33524;55.434;38.520;2023-04-04T14:19:32;100190.28;;;14.81;60.39
47761;BME280;33524;55.434;38.520;2023-04-04T14:22:00;100212.28;;;14.91;63.96
47761;BME280;33524;55.434;38.520;2023-04-04T14:24:28;100207.78;;;14.92;59.88
47761;BME280;33524;55.434;38.520;2023-04-04T14:26:56;100187.53;;;14.63;62.22
47761;BME280;33524;55.434;38.520;2023-04-04T14:29:24;100204.78;;;14.77;65.44
47761;BME280;33524;55.434;38.520;2023-04-04T14:31:53;100202.41;;;14.45;55.86
47761;BME280;33524;55.434;38.520;2023-04-04T14:34:23;100209.25;;;13.99;52.07
47761;BME280;33524;55.434;38.520;2023-04-04T14:36:53;100211.97;;;13.68;49.63
47761;BME280;33524;55.434;38.520;2023-04-04T14:39:20;100216.34;;;13.38;50.71
47761;BME280;33524;55.434;38.520;2023-04-04T14:41:48;100210.13;;;13.18;51.79
47761;BME280;33524;55.434;38.520;2023-04-04T14:44:16;100213.50;;;13.61;59.32
47761;BME280;33524;55.434;38.520;2023-04-04T14:46:45;100201.62;;;13.45;52.51
47761;BME280;33524;55.434;38.520;2023-04-04T14:49:13;100217.94;;;13.50;55.48
47761;BME280;33524;55.434;38.520;2023-04-04T14:51:41;100226.53;;;13.22;54.07
47761;BME280;33524;55.434;38.520;2023-04-04T14:54:09;100220.84;;;12.96;54.34
47761;BME280;33524;55.434;38.520;2023-04-04T14:56:37;100218.88;;;12.88;54.92
47761;BME280;33524;55.434;38.520;2023-04-04T14:59:05;100219.22;;;12.74;56.12
47761;BME280;33524;55.434;38.520;2023-04-04T15:01:34;100229.31;;;12.68;56.26
47761;BME280;33524;55.434;38.520;2023-04-04T15:04:03;100236.00;;;12.51;55.62
47761;BME280;33524;55.434;38.520;2023-04-04T15:06:33;100245.03;;;12.38;56.01
47761;BME280;33524;55.434;38.520;2023-04-04T15:09:05;100235.56;;;12.46;57.09
47761;BME280;33524;55.434;38.520;2023-04-04T15:11:34;100229.50;;;12.35;56.90
47761;BME280;33524;55.434;38.520;2023-04-04T15:14:02;100241.47;;;12.39;56.99
47761;BME280;33524;55.434;38.520;2023-04-04T15:16:31;100244.34;;;12.36;57.25
47761;BME280;33524;55.434;38.520;2023-04-04T15:19:00;100238.13;;;12.58;56.47
47761;BME280;33524;55.434;38.520;2023-04-04T15:21:28;100246.81;;;12.69;56.30
47761;BME280;33524;55.434;38.520;2023-04-04T15:23:56;100240.69;;;13.11;54.95
47761;BME280;33524;55.434;38.520;2023-04-04T15:26:24;100248.09;;;12.96;55.24
47761;BME280;33524;55.434;38.520;2023-04-04T15:28:52;100249.63;;;12.57;56.46
47761;BME280;33524;55.434;38.520;2023-04-04T15:31:20;100244.59;;;12.96;55.81
47761;BME280;33524;55.434;38.520;2023-04-04T15:33:48;100240.69;;;13.11;55.25
47761;BME280;33524;55.434;38.520;2023-04-04T15:36:16;100244.84;;;13.13;55.48
47761;BME280;33524;55.434;38.520;2023-04-04T15:38:45;100249.47;;;12.69;56.70
47761;BME280;33524;55.434;38.520;2023-04-04T15:41:12;100242.53;;;12.04;58.09
47761;BME280;33524;55.434;38.520;2023-04-04T15:43:40;100253.44;;;11.88;59.13
47761;BME280;33524;55.434;38.520;2023-04-04T15:46:09;100256.59;;;11.70;60.19
47761;BME280;33524;55.434;38.520;2023-04-04T15:48:37;100261.63;;;11.51;60.66
47761;BME280;33524;55.434;38.520;2023-04-04T15:51:05;100259.84;;;11.40;61.26
47761;BME280;33524;55.434;38.520;2023-04-04T15:53:33;100262.09;;;11.11;62.23
47761;BME280;33524;55.434;38.520;2023-04-04T15:56:01;100252.75;;;11.07;62.78
47761;BME280;33524;55.434;38.520;2023-04-04T15:58:29;100268.28;;;10.87;63.33
47761;BME280;33524;55.434;38.520;2023-04-04T16:00:57;100271.59;;;10.78;64.09
47761;BME280;33524;55.434;38.520;2023-04-04T16:03:25;100270.06;;;10.87;67.80
47761;BME280;33524;55.434;38.520;2023-04-04T16:05:53;100267.97;;;10.68;64.63
47761;BME280;33524;55.434;38.520;2023-04-04T16:08:21;100272.88;;;10.73;65.58
47761;BME280;33524;55.434;38.520;2023-04-04T16:10:49;100278.03;;;10.63;65.05
47761;BME280;33524;55.434;38.520;2023-04-04T16:13:17;100277.63;;;10.56;65.37
47761;BME280;33524;55.434;38.520;2023-04-04T16:15:45;100279.94;;;10.61;67.83
47761;BME280;33524;55.434;38.520;2023-04-04T16:18:13;100262.06;;;10.42;66.40
47761;BME280;33524;55.434;38.520;2023-04-04T16:20:41;100261.09;;;10.43;65.86
47761;BME280;33524;55.434;38.520;2023-04-04T16:23:09;100283.34;;;10.50;67.01
47761;BME280;33524;55.434;38.520;2023-04-04T16:25:37;100287.91;;;10.48;68.92
47761;BME280;33524;55.434;38.520;2023-04-04T16:28:05;100289.75;;;10.70;71.04
47761;BME280;33524;55.434;38.520;2023-04-04T16:30:32;100287.84;;;10.72;69.87
47761;BME280;33524;55.434;38.520;2023-04-04T16:33:00;100299.16;;;10.61;68.28
47761;BME280;33524;55.434;38.520;2023-04-04T16:35:28;100303.16;;;10.43;68.78
47761;BME280;33524;55.434;38.520;2023-04-04T16:37:58;100304.69;;;10.21;69.74
47761;BME280;33524;55.434;38.520;2023-04-04T16:40:26;100301.78;;;10.13;69.85
47761;BME280;33524;55.434;38.520;2023-04-04T16:42:54;100314.34;;;10.34;70.19
47761;BME280;33524;55.434;38.520;2023-04-04T16:45:22;100313.50;;;10.20;69.32
47761;BME280;33524;55.434;38.520;2023-04-04T16:47:50;100320.91;;;10.15;70.06
47761;BME280;33524;55.434;38.520;2023-04-04T16:50:18;100313.03;;;10.15;69.93
47761;BME280;33524;55.434;38.520;2023-04-04T16:52:46;100314.00;;;10.01;69.20
47761;BME280;33524;55.434;38.520;2023-04-04T16:55:14;100311.72;;;9.97;70.35
47761;BME280;33524;55.434;38.520;2023-04-04T16:57:42;100319.88;;;10.05;72.30
47761;BME280;33524;55.434;38.520;2023-04-04T17:00:11;100315.47;;;10.05;71.42
47761;BME280;33524;55.434;38.520;2023-04-04T17:02:51;100318.22;;;9.91;71.35
47761;BME280;33524;55.434;38.520;2023-04-04T17:05:19;100315.81;;;9.88;70.55
47761;BME280;33524;55.434;38.520;2023-04-04T17:07:48;100319.63;;;9.71;70.19
47761;BME280;33524;55.434;38.520;2023-04-04T17:10:16;100315.28;;;9.96;72.77
47761;BME280;33524;55.434;38.520;2023-04-04T17:12:45;100325.75;;;10.45;71.83
47761;BME280;33524;55.434;38.520;2023-04-04T17:15:13;100323.91;;;10.35;71.05
47761;BME280;33524;55.434;38.520;2023-04-04T17:17:44;100321.28;;;10.59;69.97
47761;BME280;33524;55.434;38.520;2023-04-04T17:20:12;100313.22;;;10.49;69.23
47761;BME280;33524;55.434;38.520;2023-04-04T17:22:45;100329.47;;;9.93;70.20
47761;BME280;33524;55.434;38.520;2023-04-04T17:25:13;100326.28;;;9.64;70.57
47761;BME280;33524;55.434;38.520;2023-04-04T17:27:41;100325.72;;;9.59;73.02
47761;BME280;33524;55.434;38.520;2023-04-04T17:30:10;100320.38;;;9.22;71.80
47761;BME280;33524;55.434;38.520;2023-04-04T17:32:38;100330.88;;;8.96;72.72
47761;BME280;33524;55.434;38.520;2023-04-04T17:35:08;100329.78;;;8.86;73.35
47761;BME280;33524;55.434;38.520;2023-04-04T17:37:36;100323.53;;;9.01;73.66
47761;BME280;33524;55.434;38.520;2023-04-04T17:40:04;100337.19;;;9.06;73.34
47761;BME280;33524;55.434;38.520;2023-04-04T17:42:32;100334.56;;;9.06;73.07
47761;BME280;33524;55.434;38.520;2023-04-04T17:45:01;100337.16;;;9.83;73.51
47761;BME280;33524;55.434;38.520;2023-04-04T17:47:29;100335.81;;;9.65;72.38
47761;BME280;33524;55.434;38.520;2023-04-04T17:49:57;100341.78;;;9.93;71.85
47761;BME280;33524;55.434;38.520;2023-04-04T17:52:25;100341.81;;;9.80;71.39
47761;BME280;33524;55.434;38.520;2023-04-04T17:54:54;100333.84;;;9.56;72.34
47761;BME280;33524;55.434;38.520;2023-04-04T17:57:22;100345.16;;;9.69;71.25
47761;BME280;33524;55.434;38.520;2023-04-04T17:59:50;100340.97;;;10.16;70.37
47761;BME280;33524;55.434;38.520;2023-04-04T18:02:18;100334.12;;;9.77;70.45
47761;BME280;33524;55.434;38.520;2023-04-04T18:04:46;100338.16;;;8.78;72.78
47761;BME280;33524;55.434;38.520;2023-04-04T18:07:14;100342.94;;;8.59;74.58
47761;BME280;33524;55.434;38.520;2023-04-04T18:09:43;100336.16;;;8.69;73.90
47761;BME280;33524;55.434;38.520;2023-04-04T18:12:12;100331.56;;;8.73;73.33
47761;BME280;33524;55.434;38.520;2023-04-04T18:14:40;100347.56;;;8.68;73.55
47761;BME280;33524;55.434;38.520;2023-04-04T18:17:08;100338.94;;;8.53;74.05
47761;BME280;33524;55.434;38.520;2023-04-04T18:19:37;100347.31;;;8.31;75.41
47761;BME280;33524;55.434;38.520;2023-04-04T18:22:06;100349.75;;;8.20;76.08
47761;BME280;33524;55.434;38.520;2023-04-04T18:24:34;100338.09;;;8.11;76.05
47761;BME280;33524;55.434;38.520;2023-04-04T18:27:03;100347.69;;;7.83;78.17
47761;BME280;33524;55.434;38.520;2023-04-04T18:29:31;100344.19;;;7.83;77.84
47761;BME280;33524;55.434;38.520;2023-04-04T18:32:00;100344.88;;;7.86;78.23
47761;BME280;33524;55.434;38.520;2023-04-04T18:34:29;100339.53;;;7.88;77.93
47761;BME280;33524;55.434;38.520;2023-04-04T18:36:57;100342.44;;;7.83;77.95
47761;BME280;33524;55.434;38.520;2023-04-04T18:39:25;100343.66;;;7.63;78.88
47761;BME280;33524;55.434;38.520;2023-04-04T18:41:54;100342.31;;;7.42;80.67
47761;BME280;33524;55.434;38.520;2023-04-04T18:44:23;100356.81;;;7.33;81.06
47761;BME280;33524;55.434;38.520;2023-04-04T18:46:50;100349.41;;;7.25;81.75
47761;BME280;33524;55.434;38.520;2023-04-04T18:49:19;100346.53;;;7.16;81.95
47761;BME280;33524;55.434;38.520;2023-04-04T18:51:46;100354.91;;;7.21;83.17
47761;BME280;33524;55.434;38.520;2023-04-04T18:54:14;100353.09;;;7.52;81.20
47761;BME280;33524;55.434;38.520;2023-04-04T18:56:43;100352.63;;;7.59;80.45
47761;BME280;33524;55.434;38.520;2023-04-04T18:59:11;100350.47;;;7.80;79.26
47761;BME280;33524;55.434;38.520;2023-04-04T19:01:38;100348.50;;;7.98;77.69
47761;BME280;33524;55.434;38.520;2023-04-04T19:04:07;100344.12;;;7.70;78.87
47761;BME280;33524;55.434;38.520;2023-04-04T19:06:35;100353.19;;;7.50;79.53
47761;BME280;33524;55.434;38.520;2023-04-04T19:09:04;100353.94;;;7.66;78.65
47761;BME280;33524;55.434;38.520;2023-04-04T19:11:32;100354.09;;;8.06;76.33
47761;BME280;33524;55.434;38.520;2023-04-04T19:14:00;100342.97;;;8.03;75.85
47761;BME280;33524;55.434;38.520;2023-04-04T19:16:28;100341.84;;;8.48;73.52
47761;BME280;33524;55.434;38.520;2023-04-04T19:18:56;100347.78;;;8.23;74.25
47761;BME280;33524;55.434;38.520;2023-04-04T19:21:24;100341.38;;;8.15;74.46
47761;BME280;33524;55.434;38.520;2023-04-04T19:23:52;100344.50;;;7.50;77.85
47761;BME280;33524;55.434;38.520;2023-04-04T19:26:20;100352.91;;;6.96;81.08
47761;BME280;33524;55.434;38.520;2023-04-04T19:28:48;100364.12;;;6.36;84.30
47761;BME280;33524;55.434;38.520;2023-04-04T19:31:20;100361.25;;;6.56;83.53
47761;BME280;33524;55.434;38.520;2023-04-04T19:33:49;100358.56;;;6.58;83.79
47761;BME280;33524;55.434;38.520;2023-04-04T19:36:18;100348.66;;;6.79;82.32
47761;BME280;33524;55.434;38.520;2023-04-04T19:38:46;100350.47;;;6.62;82.32
47761;BME280;33524;55.434;38.520;2023-04-04T19:43:48;100356.78;;;7.19;79.21